createdAt,value
2018-04-22T00:04:24.704Z,4.77
2018-04-22T00:14:27.967Z,5.10
2018-04-22T00:24:31.927Z,4.83
2018-04-22T00:34:35.119Z,4.70
2018-04-22T00:44:38.314Z,5.00
2018-04-22T00:54:41.508Z,4.90
2018-04-22T01:04:45.421Z,4.53
2018-04-22T01:14:50.152Z,4.87
2018-04-22T01:24:53.444Z,5.30
2018-04-22T01:34:57.389Z,4.90
2018-04-22T01:45:00.611Z,4.87
2018-04-22T01:55:03.793Z,4.93
2018-04-22T02:05:07.034Z,5.10
2018-04-22T02:15:10.203Z,4.73
2018-04-22T02:25:14.172Z,4.70
2018-04-22T02:35:17.367Z,5.13
2018-04-22T02:45:20.621Z,4.70
2018-04-22T02:55:25.917Z,4.83
2018-04-22T03:05:29.881Z,4.70
2018-04-22T03:15:33.934Z,5.10
2018-04-22T03:25:37.177Z,4.90
2018-04-22T03:35:40.374Z,4.87
2018-04-22T03:45:43.558Z,4.87
2018-04-22T03:55:46.741Z,4.73
2018-04-22T04:05:49.924Z,4.97
2018-04-22T04:15:53.130Z,4.57
2018-04-22T04:36:42.588Z,4.50
2018-04-22T04:46:45.769Z,4.73
2018-04-22T04:56:48.971Z,4.90
2018-04-22T05:06:53.671Z,5.23
2018-04-22T05:16:57.657Z,4.87
2018-04-22T05:27:00.868Z,4.90
2018-04-22T05:37:04.062Z,4.87
2018-04-22T05:47:07.245Z,5.23
2018-04-22T05:57:10.486Z,5.40
2018-04-22T06:07:14.437Z,5.07
2018-04-22T06:17:17.707Z,4.87
2018-04-22T06:27:21.734Z,5.50
2018-04-22T06:37:24.952Z,5.47
2018-04-22T06:47:28.971Z,5.33
2018-04-22T06:57:32.934Z,5.33
2018-04-22T07:07:36.977Z,5.80
2018-04-22T07:17:40.788Z,5.30
2018-04-22T07:27:44.007Z,5.83
2018-04-22T07:37:47.261Z,6.17
2018-04-22T07:47:50.438Z,6.60
2018-04-22T07:57:53.652Z,7.13
2018-04-22T08:07:56.820Z,6.20
2018-04-22T08:18:00.096Z,5.50
2018-04-22T08:28:03.280Z,5.33
2018-04-22T08:38:06.459Z,5.23
2018-04-22T08:48:09.650Z,5.27
2018-04-22T08:58:13.623Z,5.47
2018-04-22T09:08:16.824Z,5.43
2018-04-22T09:18:20.020Z,5.40
2018-04-22T09:28:23.208Z,5.30
2018-04-22T09:38:26.424Z,5.60
2018-04-22T09:48:29.782Z,5.40
2018-04-22T09:58:32.980Z,5.57
2018-04-22T10:08:36.185Z,5.13
2018-04-22T10:18:39.383Z,5.10
2018-04-22T10:28:42.579Z,4.87
2018-04-22T10:38:45.760Z,5.50
2018-04-22T10:48:48.953Z,5.50
2018-04-22T10:58:52.197Z,5.87
2018-04-22T11:08:55.903Z,5.50
2018-04-22T11:18:59.075Z,4.97
2018-04-22T11:29:02.285Z,5.43
2018-04-22T11:39:07.352Z,5.50
2018-04-22T11:49:12.029Z,5.13
2018-04-22T11:59:15.998Z,5.20
2018-04-22T12:09:19.203Z,4.67
2018-04-22T12:19:22.385Z,5.10
2018-04-22T12:29:25.567Z,5.00
2018-04-22T12:39:28.766Z,5.00
2018-04-22T12:49:32.796Z,4.77
2018-04-22T12:59:35.971Z,5.17
2018-04-22T13:09:39.927Z,4.67
2018-04-22T13:19:43.900Z,5.03
2018-04-22T13:29:47.102Z,4.80
2018-04-22T13:39:50.351Z,4.50
2018-04-22T13:49:53.532Z,4.70
2018-04-22T13:59:56.723Z,4.90
2018-04-22T14:09:59.973Z,4.50
2018-04-22T14:20:03.164Z,4.40
2018-04-22T14:30:06.359Z,4.63
2018-04-22T14:40:09.543Z,4.60
2018-04-22T14:50:12.776Z,4.80
2018-04-22T15:00:16.193Z,5.07
2018-04-22T15:10:19.440Z,4.80
2018-04-22T15:20:22.618Z,4.80
2018-04-22T15:30:25.796Z,5.00
2018-04-22T15:40:29.000Z,6.53
2018-04-22T15:50:32.209Z,5.93
2018-04-22T16:00:35.667Z,5.73
2018-04-22T16:10:40.438Z,5.63
2018-04-22T16:20:44.371Z,5.40
2018-04-22T16:30:49.162Z,5.30
2018-04-22T16:40:52.578Z,5.03
2018-04-22T16:50:56.550Z,4.90
2018-04-22T17:00:59.755Z,5.10
2018-04-22T17:11:06.012Z,5.27
2018-04-22T17:21:09.229Z,5.40
2018-04-22T17:31:12.426Z,7.27
2018-04-22T17:41:16.081Z,6.73
2018-04-22T17:51:19.528Z,26.13
2018-04-22T18:01:22.784Z,24.37
2018-04-22T18:11:26.731Z,23.23
2018-04-22T18:21:30.084Z,20.10
2018-04-22T18:31:34.272Z,11.77
2018-04-22T18:41:39.027Z,9.20
2018-04-22T18:51:42.981Z,9.93
2018-04-22T19:01:46.402Z,11.40
2018-04-22T19:11:49.678Z,8.13
2018-04-22T19:21:54.397Z,9.60
2018-04-22T19:31:57.704Z,10.70
2018-04-22T19:42:01.465Z,6.83
2018-04-22T19:52:06.095Z,5.90
2018-04-22T20:02:09.655Z,5.90
2018-04-22T20:12:12.876Z,5.47
2018-04-22T20:22:16.148Z,5.07
2018-04-22T20:32:19.371Z,5.40
2018-04-22T20:42:23.090Z,5.40
2018-04-22T20:52:27.451Z,6.00
2018-04-22T21:02:31.420Z,5.37
2018-04-22T21:12:35.698Z,5.40
2018-04-22T21:22:39.012Z,5.10
2018-04-22T21:32:42.241Z,5.53
2018-04-22T21:42:45.455Z,5.23
2018-04-22T21:52:48.804Z,5.60
2018-04-22T22:02:52.094Z,5.13
2018-04-22T22:12:55.265Z,5.20
2018-04-22T22:22:59.229Z,5.37
2018-04-22T22:33:03.200Z,4.93
2018-04-22T22:43:06.403Z,5.30
2018-04-22T22:53:10.395Z,5.00
2018-04-22T23:03:15.218Z,4.77
2018-04-22T23:13:18.416Z,5.03
2018-04-22T23:23:22.375Z,4.90
2018-04-22T23:33:26.363Z,5.17
2018-04-22T23:43:29.652Z,5.27
2018-04-22T23:53:34.367Z,5.13
